sensor_id;sensor_type;location;lat;lon;timestamp;temperature;humidity
83254;HTU21D;73149;47.270;39.602;2024-02-16T00:00:09;-2.20;74.31
83254;HTU21D;73149;47.270;39.602;2024-02-16T00:02:40;-2.19;74.40
83254;HTU21D;73149;47.270;39.602;2024-02-16T00:05:09;-2.18;74.45
83254;HTU21D;73149;47.270;39.602;2024-02-16T00:07:38;-2.15;74.26
83254;HTU21D;73149;47.270;39.602;2024-02-16T00:10:04;-2.17;74.34
83254;HTU21D;73149;47.270;39.602;2024-02-16T00:12:32;-2.20;74.31
83254;HTU21D;73149;47.270;39.602;2024-02-16T00:14:58;-2.18;74.49
83254;HTU21D;73149;47.270;39.602;2024-02-16T00:17:25;-2.17;74.47
83254;HTU21D;73149;47.270;39.602;2024-02-16T00:19:55;-2.17;74.51
83254;HTU21D;73149;47.270;39.602;2024-02-16T00:22:21;-2.17;74.46
83254;HTU21D;73149;47.270;39.602;2024-02-16T00:24:47;-2.17;74.60
83254;HTU21D;73149;47.270;39.602;2024-02-16T00:27:14;-2.19;74.60
83254;HTU21D;73149;47.270;39.602;2024-02-16T00:29:40;-2.18;74.70
83254;HTU21D;73149;47.270;39.602;2024-02-16T00:32:06;-2.21;74.62
83254;HTU21D;73149;47.270;39.602;2024-02-16T00:34:36;-2.20;74.70
83254;HTU21D;73149;47.270;39.602;2024-02-16T00:37:03;-2.20;74.64
83254;HTU21D;73149;47.270;39.602;2024-02-16T00:39:36;-2.20;74.67
83254;HTU21D;73149;47.270;39.602;2024-02-16T00:42:03;-2.23;74.77
83254;HTU21D;73149;47.270;39.602;2024-02-16T00:44:29;-2.22;74.81
83254;HTU21D;73149;47.270;39.602;2024-02-16T00:46:54;-2.22;74.89
83254;HTU21D;73149;47.270;39.602;2024-02-16T00:49:20;-2.21;74.90
83254;HTU21D;73149;47.270;39.602;2024-02-16T00:51:46;-2.22;74.91
83254;HTU21D;73149;47.270;39.602;2024-02-16T00:54:12;-2.24;74.96
83254;HTU21D;73149;47.270;39.602;2024-02-16T00:56:38;-2.21;75.05
83254;HTU21D;73149;47.270;39.602;2024-02-16T00:59:04;-2.22;75.09
83254;HTU21D;73149;47.270;39.602;2024-02-16T01:01:30;-2.21;75.05
83254;HTU21D;73149;47.270;39.602;2024-02-16T01:03:56;-2.20;75.10
83254;HTU21D;73149;47.270;39.602;2024-02-16T01:06:22;-2.19;75.19
83254;HTU21D;73149;47.270;39.602;2024-02-16T01:08:48;-2.21;75.18
83254;HTU21D;73149;47.270;39.602;2024-02-16T01:11:14;-2.20;75.28
83254;HTU21D;73149;47.270;39.602;2024-02-16T01:13:40;-2.20;75.32
83254;HTU21D;73149;47.270;39.602;2024-02-16T01:16:06;-2.21;75.36
83254;HTU21D;73149;47.270;39.602;2024-02-16T01:18:32;-2.23;75.44
83254;HTU21D;73149;47.270;39.602;2024-02-16T01:20:58;-2.27;75.49
83254;HTU21D;73149;47.270;39.602;2024-02-16T01:23:24;-2.28;75.57
83254;HTU21D;73149;47.270;39.602;2024-02-16T01:25:50;-2.26;75.65
83254;HTU21D;73149;47.270;39.602;2024-02-16T01:28:16;-2.20;75.83
83254;HTU21D;73149;47.270;39.602;2024-02-16T01:30:42;-2.17;75.73
83254;HTU21D;73149;47.270;39.602;2024-02-16T01:33:08;-2.18;75.76
83254;HTU21D;73149;47.270;39.602;2024-02-16T01:35:34;-2.17;75.84
83254;HTU21D;73149;47.270;39.602;2024-02-16T01:38:00;-2.19;75.89
83254;HTU21D;73149;47.270;39.602;2024-02-16T01:40:28;-2.20;75.96
83254;HTU21D;73149;47.270;39.602;2024-02-16T01:42:54;-2.19;76.07
83254;HTU21D;73149;47.270;39.602;2024-02-16T01:45:20;-2.18;76.11
83254;HTU21D;73149;47.270;39.602;2024-02-16T01:47:48;-2.22;76.10
83254;HTU21D;73149;47.270;39.602;2024-02-16T01:50:16;-2.23;76.31
83254;HTU21D;73149;47.270;39.602;2024-02-16T01:52:43;-2.24;76.38
83254;HTU21D;73149;47.270;39.602;2024-02-16T01:55:10;-2.26;76.45
83254;HTU21D;73149;47.270;39.602;2024-02-16T01:57:39;-2.24;76.44
83254;HTU21D;73149;47.270;39.602;2024-02-16T02:00:05;-2.24;76.53
83254;HTU21D;73149;47.270;39.602;2024-02-16T02:02:35;-2.26;76.59
83254;HTU21D;73149;47.270;39.602;2024-02-16T02:05:01;-2.28;76.66
83254;HTU21D;73149;47.270;39.602;2024-02-16T02:07:27;-2.23;76.79
83254;HTU21D;73149;47.270;39.602;2024-02-16T02:09:54;-2.24;76.70
83254;HTU21D;73149;47.270;39.602;2024-02-16T02:12:20;-2.24;76.80
83254;HTU21D;73149;47.270;39.602;2024-02-16T02:14:47;-2.23;76.88
83254;HTU21D;73149;47.270;39.602;2024-02-16T02:17:12;-2.24;76.93
83254;HTU21D;73149;47.270;39.602;2024-02-16T02:19:38;-2.26;76.98
83254;HTU21D;73149;47.270;39.602;2024-02-16T02:22:08;-2.28;76.98
83254;HTU21D;73149;47.270;39.602;2024-02-16T02:24:34;-2.29;77.11
83254;HTU21D;73149;47.270;39.602;2024-02-16T02:27:00;-2.27;77.21
83254;HTU21D;73149;47.270;39.602;2024-02-16T02:29:26;-2.23;77.18
83254;HTU21D;73149;47.270;39.602;2024-02-16T02:31:51;-2.23;77.31
83254;HTU21D;73149;47.270;39.602;2024-02-16T02:34:17;-2.27;77.27
83254;HTU21D;73149;47.270;39.602;2024-02-16T02:36:43;-2.28;77.44
83254;HTU21D;73149;47.270;39.602;2024-02-16T02:39:09;-2.29;77.52
83254;HTU21D;73149;47.270;39.602;2024-02-16T02:41:35;-2.31;77.48
83254;HTU21D;73149;47.270;39.602;2024-02-16T02:44:01;-2.30;77.63
83254;HTU21D;73149;47.270;39.602;2024-02-16T02:46:27;-2.27;77.68
83254;HTU21D;73149;47.270;39.602;2024-02-16T02:48:53;-2.29;77.61
83254;HTU21D;73149;47.270;39.602;2024-02-16T02:51:19;-2.29;77.57
83254;HTU21D;73149;47.270;39.602;2024-02-16T02:53:45;-2.29;77.59
83254;HTU21D;73149;47.270;39.602;2024-02-16T02:56:10;-2.27;77.68
83254;HTU21D;73149;47.270;39.602;2024-02-16T02:58:39;-2.30;77.73
83254;HTU21D;73149;47.270;39.602;2024-02-16T03:01:05;-2.30;77.76
83254;HTU21D;73149;47.270;39.602;2024-02-16T03:03:33;-2.32;77.72
83254;HTU21D;73149;47.270;39.602;2024-02-16T03:05:59;-2.37;77.69
83254;HTU21D;73149;47.270;39.602;2024-02-16T03:08:25;-2.38;77.72
83254;HTU21D;73149;47.270;39.602;2024-02-16T03:10:51;-2.39;77.81
83254;HTU21D;73149;47.270;39.602;2024-02-16T03:13:17;-2.41;77.77
83254;HTU21D;73149;47.270;39.602;2024-02-16T03:15:45;-2.42;77.87
83254;HTU21D;73149;47.270;39.602;2024-02-16T03:18:10;-2.43;77.89
83254;HTU21D;73149;47.270;39.602;2024-02-16T03:20:36;-2.43;77.93
83254;HTU21D;73149;47.270;39.602;2024-02-16T03:23:02;-2.43;78.00
83254;HTU21D;73149;47.270;39.602;2024-02-16T03:25:29;-2.44;78.05
83254;HTU21D;73149;47.270;39.602;2024-02-16T03:27:55;-2.43;78.11
83254;HTU21D;73149;47.270;39.602;2024-02-16T03:30:21;-2.42;78.07
83254;HTU21D;73149;47.270;39.602;2024-02-16T03:32:50;-2.37;78.26
83254;HTU21D;73149;47.270;39.602;2024-02-16T03:35:16;-2.34;78.26
83254;HTU21D;73149;47.270;39.602;2024-02-16T03:37:42;-2.32;78.30
83254;HTU21D;73149;47.270;39.602;2024-02-16T03:40:08;-2.33;78.26
83254;HTU21D;73149;47.270;39.602;2024-02-16T03:42:35;-2.32;78.38
83254;HTU21D;73149;47.270;39.602;2024-02-16T03:45:02;-2.30;78.40
83254;HTU21D;73149;47.270;39.602;2024-02-16T03:47:28;-2.28;78.40
83254;HTU21D;73149;47.270;39.602;2024-02-16T03:49:54;-2.24;78.49
83254;HTU21D;73149;47.270;39.602;2024-02-16T03:52:20;-2.26;78.53
83254;HTU21D;73149;47.270;39.602;2024-02-16T03:54:45;-2.23;78.55
83254;HTU21D;73149;47.270;39.602;2024-02-16T03:57:14;-2.26;78.63
83254;HTU21D;73149;47.270;39.602;2024-02-16T03:59:45;-2.24;78.76
83254;HTU21D;73149;47.270;39.602;2024-02-16T04:02:11;-2.20;78.93
83254;HTU21D;73149;47.270;39.602;2024-02-16T04:04:39;-2.19;78.84
83254;HTU21D;73149;47.270;39.602;2024-02-16T04:07:05;-2.17;79.01
83254;HTU21D;73149;47.270;39.602;2024-02-16T04:09:33;-1.89;79.21
83254;HTU21D;73149;47.270;39.602;2024-02-16T04:11:58;-1.83;79.07
83254;HTU21D;73149;47.270;39.602;2024-02-16T04:14:24;-1.85;78.98
83254;HTU21D;73149;47.270;39.602;2024-02-16T04:16:50;-1.90;78.96
83254;HTU21D;73149;47.270;39.602;2024-02-16T04:19:16;-1.87;79.17
83254;HTU21D;73149;47.270;39.602;2024-02-16T04:21:41;-1.83;79.19
83254;HTU21D;73149;47.270;39.602;2024-02-16T04:24:07;-1.92;79.09
83254;HTU21D;73149;47.270;39.602;2024-02-16T04:26:33;-2.01;79.17
83254;HTU21D;73149;47.270;39.602;2024-02-16T04:28:59;-2.04;79.40
83254;HTU21D;73149;47.270;39.602;2024-02-16T04:31:25;-2.10;79.36
83254;HTU21D;73149;47.270;39.602;2024-02-16T04:33:51;-2.10;79.47
83254;HTU21D;73149;47.270;39.602;2024-02-16T04:36:18;-2.06;79.65
83254;HTU21D;73149;47.270;39.602;2024-02-16T04:38:44;-2.07;79.64
83254;HTU21D;73149;47.270;39.602;2024-02-16T04:41:10;-2.07;79.68
83254;HTU21D;73149;47.270;39.602;2024-02-16T04:43:36;-2.05;79.71
83254;HTU21D;73149;47.270;39.602;2024-02-16T04:46:02;-2.06;79.78
83254;HTU21D;73149;47.270;39.602;2024-02-16T04:48:28;-2.05;79.92
83254;HTU21D;73149;47.270;39.602;2024-02-16T04:50:54;-2.03;79.90
83254;HTU21D;73149;47.270;39.602;2024-02-16T04:53:20;-2.02;79.96
83254;HTU21D;73149;47.270;39.602;2024-02-16T04:55:46;-2.05;80.06
83254;HTU21D;73149;47.270;39.602;2024-02-16T04:58:11;-2.06;80.19
83254;HTU21D;73149;47.270;39.602;2024-02-16T05:00:38;-2.04;80.29
83254;HTU21D;73149;47.270;39.602;2024-02-16T05:03:04;-2.01;80.39
83254;HTU21D;73149;47.270;39.602;2024-02-16T05:05:30;-1.99;80.40
83254;HTU21D;73149;47.270;39.602;2024-02-16T05:07:56;-2.04;80.33
83254;HTU21D;73149;47.270;39.602;2024-02-16T05:10:22;-2.08;80.37
83254;HTU21D;73149;47.270;39.602;2024-02-16T05:12:48;-2.12;80.43
83254;HTU21D;73149;47.270;39.602;2024-02-16T05:15:14;-2.12;80.52
83254;HTU21D;73149;47.270;39.602;2024-02-16T05:17:41;-2.15;80.58
83254;HTU21D;73149;47.270;39.602;2024-02-16T05:20:11;-2.13;80.69
83254;HTU21D;73149;47.270;39.602;2024-02-16T05:22:46;-2.16;80.59
83254;HTU21D;73149;47.270;39.602;2024-02-16T05:25:13;-2.22;80.77
83254;HTU21D;73149;47.270;39.602;2024-02-16T05:27:39;-2.17;80.88
83254;HTU21D;73149;47.270;39.602;2024-02-16T05:30:06;-2.21;80.80
83254;HTU21D;73149;47.270;39.602;2024-02-16T05:32:37;-2.20;80.91
83254;HTU21D;73149;47.270;39.602;2024-02-16T05:35:03;-2.21;80.91
83254;HTU21D;73149;47.270;39.602;2024-02-16T05:37:42;-2.24;80.81
83254;HTU21D;73149;47.270;39.602;2024-02-16T05:40:10;-2.24;80.93
83254;HTU21D;73149;47.270;39.602;2024-02-16T05:43:09;-2.29;81.00
83254;HTU21D;73149;47.270;39.602;2024-02-16T05:45:35;-2.33;81.07
83254;HTU21D;73149;47.270;39.602;2024-02-16T05:48:01;-2.32;81.12
83254;HTU21D;73149;47.270;39.602;2024-02-16T05:50:26;-2.33;81.04
83254;HTU21D;73149;47.270;39.602;2024-02-16T05:52:52;-2.33;81.04
83254;HTU21D;73149;47.270;39.602;2024-02-16T05:55:18;-2.34;81.05
83254;HTU21D;73149;47.270;39.602;2024-02-16T05:57:44;-2.32;81.11
83254;HTU21D;73149;47.270;39.602;2024-02-16T06:00:10;-2.38;81.04
83254;HTU21D;73149;47.270;39.602;2024-02-16T06:02:36;-2.30;81.10
83254;HTU21D;73149;47.270;39.602;2024-02-16T06:05:03;-2.16;81.01
83254;HTU21D;73149;47.270;39.602;2024-02-16T06:07:30;-2.08;80.94
83254;HTU21D;73149;47.270;39.602;2024-02-16T06:09:56;-2.01;80.87
83254;HTU21D;73149;47.270;39.602;2024-02-16T06:12:23;-2.12;80.68
83254;HTU21D;73149;47.270;39.602;2024-02-16T06:14:49;-2.21;80.66
83254;HTU21D;73149;47.270;39.602;2024-02-16T06:17:15;-2.28;80.74
83254;HTU21D;73149;47.270;39.602;2024-02-16T06:19:42;-2.31;80.83
83254;HTU21D;73149;47.270;39.602;2024-02-16T06:22:08;-2.34;80.91
83254;HTU21D;73149;47.270;39.602;2024-02-16T06:24:34;-2.36;80.92
83254;HTU21D;73149;47.270;39.602;2024-02-16T06:27:00;-2.42;80.94
83254;HTU21D;73149;47.270;39.602;2024-02-16T06:29:26;-2.46;80.97
83254;HTU21D;73149;47.270;39.602;2024-02-16T06:31:52;-2.46;80.98
83254;HTU21D;73149;47.270;39.602;2024-02-16T06:34:18;-2.48;81.05
83254;HTU21D;73149;47.270;39.602;2024-02-16T06:36:44;-2.46;80.98
83254;HTU21D;73149;47.270;39.602;2024-02-16T06:39:11;-2.43;81.04
83254;HTU21D;73149;47.270;39.602;2024-02-16T06:41:46;-2.44;80.98
83254;HTU21D;73149;47.270;39.602;2024-02-16T06:44:13;-2.43;80.83
83254;HTU21D;73149;47.270;39.602;2024-02-16T06:46:40;-2.44;80.85
83254;HTU21D;73149;47.270;39.602;2024-02-16T06:49:06;-2.46;80.88
83254;HTU21D;73149;47.270;39.602;2024-02-16T06:51:31;-2.45;80.73
83254;HTU21D;73149;47.270;39.602;2024-02-16T06:53:57;-2.50;80.69
83254;HTU21D;73149;47.270;39.602;2024-02-16T06:56:23;-2.51;80.72
83254;HTU21D;73149;47.270;39.602;2024-02-16T06:58:49;-2.48;80.70
83254;HTU21D;73149;47.270;39.602;2024-02-16T07:01:16;-2.42;80.62
83254;HTU21D;73149;47.270;39.602;2024-02-16T07:03:44;-2.47;80.52
83254;HTU21D;73149;47.270;39.602;2024-02-16T07:06:10;-2.47;80.56
83254;HTU21D;73149;47.270;39.602;2024-02-16T07:08:40;-2.45;80.59
83254;HTU21D;73149;47.270;39.602;2024-02-16T07:11:05;-2.43;80.51
83254;HTU21D;73149;47.270;39.602;2024-02-16T07:13:33;-2.43;80.42
83254;HTU21D;73149;47.270;39.602;2024-02-16T07:15:59;-2.47;80.20
83254;HTU21D;73149;47.270;39.602;2024-02-16T07:18:24;-2.52;80.12
83254;HTU21D;73149;47.270;39.602;2024-02-16T07:20:50;-2.54;80.11
83254;HTU21D;73149;47.270;39.602;2024-02-16T07:23:16;-2.54;80.07
83254;HTU21D;73149;47.270;39.602;2024-02-16T07:25:43;-2.50;80.07
83254;HTU21D;73149;47.270;39.602;2024-02-16T07:28:09;-2.56;80.02
83254;HTU21D;73149;47.270;39.602;2024-02-16T07:30:36;-2.53;80.11
83254;HTU21D;73149;47.270;39.602;2024-02-16T07:33:07;-2.48;80.09
83254;HTU21D;73149;47.270;39.602;2024-02-16T07:35:34;-2.48;79.99
83254;HTU21D;73149;47.270;39.602;2024-02-16T07:40:28;-2.53;79.98
83254;HTU21D;73149;47.270;39.602;2024-02-16T07:42:54;-2.51;79.88
83254;HTU21D;73149;47.270;39.602;2024-02-16T07:45:20;-2.51;79.75
83254;HTU21D;73149;47.270;39.602;2024-02-16T07:47:46;-2.51;79.56
83254;HTU21D;73149;47.270;39.602;2024-02-16T07:50:12;-2.57;79.43
83254;HTU21D;73149;47.270;39.602;2024-02-16T07:52:39;-2.54;79.49
83254;HTU21D;73149;47.270;39.602;2024-02-16T07:55:08;-2.51;79.33
83254;HTU21D;73149;47.270;39.602;2024-02-16T07:57:34;-2.58;79.17
83254;HTU21D;73149;47.270;39.602;2024-02-16T08:00:00;-2.60;79.20
83254;HTU21D;73149;47.270;39.602;2024-02-16T08:02:26;-2.59;79.32
83254;HTU21D;73149;47.270;39.602;2024-02-16T08:04:52;-2.58;79.37
83254;HTU21D;73149;47.270;39.602;2024-02-16T08:07:18;-2.53;79.30
83254;HTU21D;73149;47.270;39.602;2024-02-16T08:09:45;-2.56;79.24
83254;HTU21D;73149;47.270;39.602;2024-02-16T08:12:11;-2.50;79.22
83254;HTU21D;73149;47.270;39.602;2024-02-16T08:14:41;-2.57;79.09
83254;HTU21D;73149;47.270;39.602;2024-02-16T08:17:07;-2.53;79.08
83254;HTU21D;73149;47.270;39.602;2024-02-16T08:19:35;-2.52;78.98
83254;HTU21D;73149;47.270;39.602;2024-02-16T08:22:06;-2.51;78.88
83254;HTU21D;73149;47.270;39.602;2024-02-16T08:24:36;-2.52;78.74
83254;HTU21D;73149;47.270;39.602;2024-02-16T08:27:02;-2.53;78.37
83254;HTU21D;73149;47.270;39.602;2024-02-16T08:29:30;-2.59;78.48
83254;HTU21D;73149;47.270;39.602;2024-02-16T08:31:56;-2.59;78.58
83254;HTU21D;73149;47.270;39.602;2024-02-16T08:34:22;-2.51;78.75
83254;HTU21D;73149;47.270;39.602;2024-02-16T08:36:49;-2.48;78.60
83254;HTU21D;73149;47.270;39.602;2024-02-16T08:39:16;-2.54;78.54
83254;HTU21D;73149;47.270;39.602;2024-02-16T08:41:42;-2.54;78.52
83254;HTU21D;73149;47.270;39.602;2024-02-16T08:44:14;-2.48;78.54
83254;HTU21D;73149;47.270;39.602;2024-02-16T08:46:40;-2.43;78.60
83254;HTU21D;73149;47.270;39.602;2024-02-16T08:49:06;-2.37;78.23
83254;HTU21D;73149;47.270;39.602;2024-02-16T08:51:35;-2.41;78.08
83254;HTU21D;73149;47.270;39.602;2024-02-16T08:54:01;-2.39;78.24
83254;HTU21D;73149;47.270;39.602;2024-02-16T08:56:28;-2.39;77.97
83254;HTU21D;73149;47.270;39.602;2024-02-16T08:58:54;-2.39;77.85
83254;HTU21D;73149;47.270;39.602;2024-02-16T09:01:30;-2.39;77.70
83254;HTU21D;73149;47.270;39.602;2024-02-16T09:03:56;-2.42;77.50
83254;HTU21D;73149;47.270;39.602;2024-02-16T09:06:22;-2.39;77.64
83254;HTU21D;73149;47.270;39.602;2024-02-16T09:08:48;-2.35;77.36
83254;HTU21D;73149;47.270;39.602;2024-02-16T09:11:14;-2.34;77.19
83254;HTU21D;73149;47.270;39.602;2024-02-16T09:13:40;-2.33;77.11
83254;HTU21D;73149;47.270;39.602;2024-02-16T09:16:06;-2.37;76.97
83254;HTU21D;73149;47.270;39.602;2024-02-16T09:18:33;-2.37;76.96
83254;HTU21D;73149;47.270;39.602;2024-02-16T09:20:59;-2.35;77.12
83254;HTU21D;73149;47.270;39.602;2024-02-16T09:23:26;-2.30;77.14
83254;HTU21D;73149;47.270;39.602;2024-02-16T09:25:52;-2.32;76.96
83254;HTU21D;73149;47.270;39.602;2024-02-16T09:28:18;-2.33;76.50
83254;HTU21D;73149;47.270;39.602;2024-02-16T09:30:44;-2.38;76.50
83254;HTU21D;73149;47.270;39.602;2024-02-16T09:33:10;-2.39;76.38
83254;HTU21D;73149;47.270;39.602;2024-02-16T09:35:36;-2.37;76.45
83254;HTU21D;73149;47.270;39.602;2024-02-16T09:38:02;-2.38;76.51
83254;HTU21D;73149;47.270;39.602;2024-02-16T09:40:28;-2.34;76.45
83254;HTU21D;73149;47.270;39.602;2024-02-16T09:42:54;-2.35;76.07
83254;HTU21D;73149;47.270;39.602;2024-02-16T09:45:20;-2.33;76.07
83254;HTU21D;73149;47.270;39.602;2024-02-16T09:47:48;-2.36;75.92
83254;HTU21D;73149;47.270;39.602;2024-02-16T09:50:15;-2.32;75.89
83254;HTU21D;73149;47.270;39.602;2024-02-16T09:52:46;-2.35;75.55
83254;HTU21D;73149;47.270;39.602;2024-02-16T09:55:13;-2.36;75.54
83254;HTU21D;73149;47.270;39.602;2024-02-16T09:57:39;-2.28;75.86
83254;HTU21D;73149;47.270;39.602;2024-02-16T10:00:05;-2.28;75.74
83254;HTU21D;73149;47.270;39.602;2024-02-16T10:02:42;-2.23;75.44
83254;HTU21D;73149;47.270;39.602;2024-02-16T10:05:16;-2.31;75.54
83254;HTU21D;73149;47.270;39.602;2024-02-16T10:07:43;-2.34;75.34
83254;HTU21D;73149;47.270;39.602;2024-02-16T10:10:23;-2.35;75.47
83254;HTU21D;73149;47.270;39.602;2024-02-16T10:12:49;-2.31;75.53
83254;HTU21D;73149;47.270;39.602;2024-02-16T10:15:22;-2.24;75.34
83254;HTU21D;73149;47.270;39.602;2024-02-16T10:18:02;-2.24;75.25
83254;HTU21D;73149;47.270;39.602;2024-02-16T10:20:29;-2.31;74.66
83254;HTU21D;73149;47.270;39.602;2024-02-16T10:23:11;-2.37;74.93
83254;HTU21D;73149;47.270;39.602;2024-02-16T10:25:40;-2.37;75.13
83254;HTU21D;73149;47.270;39.602;2024-02-16T10:28:10;-2.36;75.11
83254;HTU21D;73149;47.270;39.602;2024-02-16T10:30:40;-2.36;75.05
83254;HTU21D;73149;47.270;39.602;2024-02-16T10:33:08;-2.42;75.02
83254;HTU21D;73149;47.270;39.602;2024-02-16T10:35:36;-2.41;75.07
83254;HTU21D;73149;47.270;39.602;2024-02-16T10:38:02;-2.37;75.04
83254;HTU21D;73149;47.270;39.602;2024-02-16T10:40:39;-2.34;74.82
83254;HTU21D;73149;47.270;39.602;2024-02-16T10:43:05;-2.29;74.89
83254;HTU21D;73149;47.270;39.602;2024-02-16T10:45:36;-2.32;74.70
83254;HTU21D;73149;47.270;39.602;2024-02-16T10:48:05;-2.35;74.43
83254;HTU21D;73149;47.270;39.602;2024-02-16T10:50:32;-2.29;74.73
83254;HTU21D;73149;47.270;39.602;2024-02-16T10:53:09;-2.28;74.54
83254;HTU21D;73149;47.270;39.602;2024-02-16T10:55:36;-2.23;74.31
83254;HTU21D;73149;47.270;39.602;2024-02-16T10:58:07;-2.26;74.46
83254;HTU21D;73149;47.270;39.602;2024-02-16T11:00:33;-2.23;74.22
83254;HTU21D;73149;47.270;39.602;2024-02-16T11:03:02;-2.22;73.96
83254;HTU21D;73149;47.270;39.602;2024-02-16T11:05:39;-2.24;73.96
83254;HTU21D;73149;47.270;39.602;2024-02-16T11:08:13;-2.22;73.80
83254;HTU21D;73149;47.270;39.602;2024-02-16T11:10:40;-2.22;73.75
83254;HTU21D;73149;47.270;39.602;2024-02-16T11:13:06;-2.23;73.83
83254;HTU21D;73149;47.270;39.602;2024-02-16T11:15:34;-2.24;74.05
83254;HTU21D;73149;47.270;39.602;2024-02-16T11:18:03;-2.17;74.02
83254;HTU21D;73149;47.270;39.602;2024-02-16T11:20:36;-2.14;73.90
83254;HTU21D;73149;47.270;39.602;2024-02-16T11:23:06;-2.17;73.83
83254;HTU21D;73149;47.270;39.602;2024-02-16T11:25:35;-2.15;73.76
83254;HTU21D;73149;47.270;39.602;2024-02-16T11:28:03;-2.21;73.62
83254;HTU21D;73149;47.270;39.602;2024-02-16T11:30:33;-2.27;73.84
83254;HTU21D;73149;47.270;39.602;2024-02-16T11:33:00;-2.27;73.78
83254;HTU21D;73149;47.270;39.602;2024-02-16T11:35:26;-2.26;73.26
83254;HTU21D;73149;47.270;39.602;2024-02-16T11:37:52;-2.27;73.09
83254;HTU21D;73149;47.270;39.602;2024-02-16T11:40:20;-2.28;73.33
83254;HTU21D;73149;47.270;39.602;2024-02-16T11:42:46;-2.29;73.59
83254;HTU21D;73149;47.270;39.602;2024-02-16T11:45:13;-2.27;73.66
83254;HTU21D;73149;47.270;39.602;2024-02-16T11:47:38;-2.21;73.81
83254;HTU21D;73149;47.270;39.602;2024-02-16T11:50:09;-2.17;73.71
83254;HTU21D;73149;47.270;39.602;2024-02-16T11:52:38;-2.17;73.51
83254;HTU21D;73149;47.270;39.602;2024-02-16T11:55:08;-2.23;73.19
83254;HTU21D;73149;47.270;39.602;2024-02-16T11:57:35;-2.26;73.31
83254;HTU21D;73149;47.270;39.602;2024-02-16T12:00:03;-2.23;73.58
83254;HTU21D;73149;47.270;39.602;2024-02-16T12:02:36;-2.18;73.72
83254;HTU21D;73149;47.270;39.602;2024-02-16T12:05:03;-2.13;73.28
83254;HTU21D;73149;47.270;39.602;2024-02-16T12:07:29;-2.17;72.96
83254;HTU21D;73149;47.270;39.602;2024-02-16T12:09:59;-2.19;73.02
83254;HTU21D;73149;47.270;39.602;2024-02-16T12:12:25;-2.19;73.20
83254;HTU21D;73149;47.270;39.602;2024-02-16T12:14:54;-2.16;73.25
83254;HTU21D;73149;47.270;39.602;2024-02-16T12:17:21;-2.07;73.06
83254;HTU21D;73149;47.270;39.602;2024-02-16T12:19:47;-2.07;73.13
83254;HTU21D;73149;47.270;39.602;2024-02-16T12:22:19;-2.02;73.31
83254;HTU21D;73149;47.270;39.602;2024-02-16T12:24:49;-1.99;73.15
83254;HTU21D;73149;47.270;39.602;2024-02-16T12:27:18;-1.98;73.06
83254;HTU21D;73149;47.270;39.602;2024-02-16T12:29:44;-1.97;73.15
83254;HTU21D;73149;47.270;39.602;2024-02-16T12:32:10;-1.94;72.66
83254;HTU21D;73149;47.270;39.602;2024-02-16T12:34:36;-2.00;72.73
83254;HTU21D;73149;47.270;39.602;2024-02-16T12:37:06;-1.95;72.87
83254;HTU21D;73149;47.270;39.602;2024-02-16T12:39:37;-1.91;72.75
83254;HTU21D;73149;47.270;39.602;2024-02-16T12:42:03;-1.91;72.50
83254;HTU21D;73149;47.270;39.602;2024-02-16T12:44:29;-1.87;72.90
83254;HTU21D;73149;47.270;39.602;2024-02-16T12:46:56;-1.83;72.36
83254;HTU21D;73149;47.270;39.602;2024-02-16T12:49:22;-1.87;72.22
83254;HTU21D;73149;47.270;39.602;2024-02-16T12:51:49;-1.90;72.45
83254;HTU21D;73149;47.270;39.602;2024-02-16T12:54:15;-1.91;72.58
83254;HTU21D;73149;47.270;39.602;2024-02-16T12:56:47;-1.91;72.67
83254;HTU21D;73149;47.270;39.602;2024-02-16T12:59:14;-1.91;72.41
83254;HTU21D;73149;47.270;39.602;2024-02-16T13:01:40;-1.90;72.58
83254;HTU21D;73149;47.270;39.602;2024-02-16T13:04:08;-1.87;72.65
83254;HTU21D;73149;47.270;39.602;2024-02-16T13:06:34;-1.87;72.62
83254;HTU21D;73149;47.270;39.602;2024-02-16T13:09:00;-1.86;72.71
83254;HTU21D;73149;47.270;39.602;2024-02-16T13:11:28;-1.82;72.89
83254;HTU21D;73149;47.270;39.602;2024-02-16T13:13:54;-1.77;72.64
83254;HTU21D;73149;47.270;39.602;2024-02-16T13:16:20;-1.73;72.62
83254;HTU21D;73149;47.270;39.602;2024-02-16T13:18:48;-1.72;72.84
83254;HTU21D;73149;47.270;39.602;2024-02-16T13:21:14;-1.65;72.77
83254;HTU21D;73149;47.270;39.602;2024-02-16T13:23:41;-1.69;72.41
83254;HTU21D;73149;47.270;39.602;2024-02-16T13:26:07;-1.70;72.63
83254;HTU21D;73149;47.270;39.602;2024-02-16T13:28:33;-1.65;72.45
83254;HTU21D;73149;47.270;39.602;2024-02-16T13:30:59;-1.68;72.48
83254;HTU21D;73149;47.270;39.602;2024-02-16T13:33:25;-1.67;72.27
83254;HTU21D;73149;47.270;39.602;2024-02-16T13:35:51;-1.64;72.29
83254;HTU21D;73149;47.270;39.602;2024-02-16T13:38:17;-1.70;72.12
83254;HTU21D;73149;47.270;39.602;2024-02-16T13:40:43;-1.71;71.99
83254;HTU21D;73149;47.270;39.602;2024-02-16T13:43:09;-1.73;72.13
83254;HTU21D;73149;47.270;39.602;2024-02-16T13:45:52;-1.75;71.99
83254;HTU21D;73149;47.270;39.602;2024-02-16T13:48:19;-1.75;71.66
83254;HTU21D;73149;47.270;39.602;2024-02-16T13:50:48;-1.76;71.59
83254;HTU21D;73149;47.270;39.602;2024-02-16T13:53:15;-1.78;71.85
83254;HTU21D;73149;47.270;39.602;2024-02-16T13:55:42;-1.79;71.93
83254;HTU21D;73149;47.270;39.602;2024-02-16T13:58:12;-1.79;71.75
83254;HTU21D;73149;47.270;39.602;2024-02-16T14:00:38;-1.82;71.84
83254;HTU21D;73149;47.270;39.602;2024-02-16T14:03:06;-1.84;72.11
83254;HTU21D;73149;47.270;39.602;2024-02-16T14:05:37;-1.83;72.16
83254;HTU21D;73149;47.270;39.602;2024-02-16T14:08:04;-1.82;72.22
83254;HTU21D;73149;47.270;39.602;2024-02-16T14:10:31;-1.80;72.25
83254;HTU21D;73149;47.270;39.602;2024-02-16T14:13:01;-1.82;71.96
83254;HTU21D;73149;47.270;39.602;2024-02-16T14:15:27;-1.87;71.74
83254;HTU21D;73149;47.270;39.602;2024-02-16T14:17:53;-1.89;71.48
83254;HTU21D;73149;47.270;39.602;2024-02-16T14:20:19;-1.94;71.45
83254;HTU21D;73149;47.270;39.602;2024-02-16T14:22:48;-1.99;71.66
83254;HTU21D;73149;47.270;39.602;2024-02-16T14:25:14;-1.99;71.80
83254;HTU21D;73149;47.270;39.602;2024-02-16T14:27:40;-2.01;71.77
83254;HTU21D;73149;47.270;39.602;2024-02-16T14:30:10;-2.00;71.55
83254;HTU21D;73149;47.270;39.602;2024-02-16T14:32:36;-2.06;71.14
83254;HTU21D;73149;47.270;39.602;2024-02-16T14:35:03;-2.06;70.97
83254;HTU21D;73149;47.270;39.602;2024-02-16T14:37:30;-2.09;71.22
83254;HTU21D;73149;47.270;39.602;2024-02-16T14:39:56;-2.10;71.01
83254;HTU21D;73149;47.270;39.602;2024-02-16T14:42:26;-2.08;71.10
83254;HTU21D;73149;47.270;39.602;2024-02-16T14:44:54;-2.10;71.02
83254;HTU21D;73149;47.270;39.602;2024-02-16T14:47:20;-2.13;71.02
83254;HTU21D;73149;47.270;39.602;2024-02-16T14:49:48;-2.15;71.06
83254;HTU21D;73149;47.270;39.602;2024-02-16T14:52:14;-2.13;71.02
83254;HTU21D;73149;47.270;39.602;2024-02-16T14:54:40;-2.13;70.98
83254;HTU21D;73149;47.270;39.602;2024-02-16T14:57:06;-2.13;70.93
83254;HTU21D;73149;47.270;39.602;2024-02-16T14:59:32;-2.14;71.16
83254;HTU21D;73149;47.270;39.602;2024-02-16T15:01:58;-2.10;71.04
83254;HTU21D;73149;47.270;39.602;2024-02-16T15:04:26;-2.09;70.83